createdAt,value
2022-08-19T00:00:37.748Z,1004.3
2022-08-19T00:02:37.756Z,1004.2
2022-08-19T00:04:37.946Z,1004.2
2022-08-19T00:06:37.763Z,1004.3
2022-08-19T00:08:37.774Z,1004.2
2022-08-19T00:10:37.770Z,1004.3
2022-08-19T00:12:38.321Z,1004.2
2022-08-19T00:14:37.785Z,1004.1
2022-08-19T00:16:37.784Z,1004
2022-08-19T00:18:37.790Z,1004.2
2022-08-19T00:20:37.795Z,1004.1
2022-08-19T00:22:37.800Z,1004.2
2022-08-19T00:24:37.805Z,1004.2
2022-08-19T00:26:37.816Z,1004.2
2022-08-19T00:28:37.815Z,1004.3
2022-08-19T00:30:37.824Z,1004.3
2022-08-19T00:32:37.827Z,1004.3
2022-08-19T00:34:37.832Z,1004.4
2022-08-19T00:36:37.835Z,1004.4
2022-08-19T00:38:38.292Z,1004.4
2022-08-19T00:40:37.849Z,1004.4
2022-08-19T00:42:37.859Z,1004.4
2022-08-19T00:44:37.859Z,1004.4
2022-08-19T00:46:37.865Z,1004.4
2022-08-19T00:48:37.868Z,1004.3
2022-08-19T00:50:37.879Z,1004.3
2022-08-19T00:52:37.885Z,1004.3
2022-08-19T00:54:37.886Z,1004.3
2022-08-19T00:56:37.901Z,1004.3
2022-08-19T00:58:37.905Z,1004.3
2022-08-19T01:00:37.919Z,1004.3
2022-08-19T01:02:37.920Z,1004.2
2022-08-19T01:04:37.928Z,1004
2022-08-19T01:06:37.927Z,1004.2
2022-08-19T01:08:37.934Z,1004.1
2022-08-19T01:10:37.927Z,1004.2
2022-08-19T01:12:37.937Z,1004.2
2022-08-19T01:14:37.942Z,1004.2
2022-08-19T01:16:37.953Z,1004.1
2022-08-19T01:18:37.953Z,1004.2
2022-08-19T01:20:37.958Z,1004.2
2022-08-19T01:22:37.962Z,1004.2
2022-08-19T01:24:37.966Z,1004.2
2022-08-19T01:26:37.977Z,1004.2
2022-08-19T01:28:40.098Z,1004.2
2022-08-19T01:30:37.987Z,1004.1
2022-08-19T01:32:37.989Z,1004.1
2022-08-19T01:34:37.997Z,1004
2022-08-19T01:36:38.005Z,1004
2022-08-19T01:38:38.009Z,1004
2022-08-19T01:40:38.018Z,1004
2022-08-19T01:42:38.019Z,1004
2022-08-19T01:44:38.020Z,1004
2022-08-19T01:46:38.028Z,1003.9
2022-08-19T01:48:38.039Z,1003.9
2022-08-19T01:50:38.039Z,1003.8
2022-08-19T01:52:38.046Z,1003.8
2022-08-19T01:54:38.049Z,1003.8
2022-08-19T01:56:38.051Z,1003.9
2022-08-19T01:58:38.057Z,1003.9
2022-08-19T02:00:38.058Z,1003.9
2022-08-19T02:02:38.060Z,1003.8
2022-08-19T02:04:38.074Z,1003.9
2022-08-19T02:06:38.072Z,1003.9
2022-08-19T02:08:38.076Z,1003.9
2022-08-19T02:10:38.087Z,1003.8
2022-08-19T02:12:38.087Z,1003.8
2022-08-19T02:14:38.089Z,1003.9
2022-08-19T02:16:38.093Z,1003.9
2022-08-19T02:18:38.100Z,1003.8
2022-08-19T02:20:38.111Z,1003.8
2022-08-19T02:22:38.105Z,1003.8
2022-08-19T02:24:38.106Z,1003.8
2022-08-19T02:26:38.116Z,1003.9
2022-08-19T02:28:38.117Z,1003.8
2022-08-19T02:30:38.125Z,1003.8
2022-08-19T02:32:44.220Z,1003.8
2022-08-19T02:34:38.128Z,1003.8
2022-08-19T02:36:42.261Z,1003.8
2022-08-19T02:38:38.131Z,1003.9
2022-08-19T02:40:38.134Z,1003.8
2022-08-19T02:42:38.142Z,1003.9
2022-08-19T02:44:38.132Z,1003.8
2022-08-19T02:46:38.134Z,1003.8
2022-08-19T02:48:38.135Z,1003.9
2022-08-19T02:50:38.139Z,1003.9
2022-08-19T02:52:38.141Z,1003.8
2022-08-19T02:54:38.133Z,1003.8
2022-08-19T02:56:38.147Z,1003.8
2022-08-19T02:58:38.148Z,1003.9
2022-08-19T03:00:41.605Z,1003.9
2022-08-19T03:02:38.156Z,1003.9
2022-08-19T03:04:38.145Z,1004
2022-08-19T03:06:38.147Z,1004
2022-08-19T03:08:38.153Z,1004
2022-08-19T03:10:38.155Z,1004
2022-08-19T03:12:38.159Z,1004
2022-08-19T03:14:38.170Z,1004
2022-08-19T03:16:38.171Z,1004.1
2022-08-19T03:18:38.182Z,1004.1
2022-08-19T03:20:38.187Z,1004.1
2022-08-19T03:22:38.217Z,1004
2022-08-19T03:24:38.212Z,1004
2022-08-19T03:26:38.220Z,1004
2022-08-19T03:28:38.225Z,1004
2022-08-19T03:30:38.233Z,1004
2022-08-19T03:32:45.389Z,1004
2022-08-19T03:34:38.254Z,1004
2022-08-19T03:36:38.256Z,1004
2022-08-19T03:38:38.261Z,1004
2022-08-19T03:40:38.269Z,1004
2022-08-19T03:42:48.751Z,1003.9
2022-08-19T03:44:38.283Z,1004
2022-08-19T03:46:38.283Z,1004
2022-08-19T03:48:38.298Z,1004
2022-08-19T03:50:38.294Z,1004.1
2022-08-19T03:52:38.307Z,1004.1
2022-08-19T03:54:38.315Z,1004.1
2022-08-19T03:56:38.317Z,1004.1
2022-08-19T03:58:38.331Z,1004.1
2022-08-19T04:00:38.339Z,1004
2022-08-19T04:02:38.341Z,1004
2022-08-19T04:04:38.353Z,1004.1
2022-08-19T04:06:38.828Z,1004
2022-08-19T04:08:38.363Z,1004.1
2022-08-19T04:10:38.373Z,1004.1
2022-08-19T04:12:38.382Z,1004.1
2022-08-19T04:14:38.386Z,1004.1
2022-08-19T04:16:38.397Z,1004.1
2022-08-19T04:18:38.404Z,1004.1
2022-08-19T04:20:38.414Z,1004.1
2022-08-19T04:22:38.418Z,1003.9
2022-08-19T04:24:38.423Z,1003.9
2022-08-19T04:26:38.427Z,1004
2022-08-19T04:28:38.442Z,1004
2022-08-19T04:30:38.454Z,1004
2022-08-19T04:32:38.463Z,1004.1
2022-08-19T04:35:01.033Z,1004.2
2022-08-19T04:36:38.466Z,1004.2
2022-08-19T04:38:38.476Z,1004.2
2022-08-19T04:40:38.479Z,1004.2
2022-08-19T04:42:38.490Z,1004.2
2022-08-19T04:44:39.030Z,1004.2
2022-08-19T04:46:39.699Z,1004.3
2022-08-19T04:48:41.128Z,1004.2
2022-08-19T04:50:38.521Z,1004.3
2022-08-19T04:52:38.529Z,1004.3
2022-08-19T04:54:39.336Z,1004.3
2022-08-19T04:56:38.553Z,1004.3
2022-08-19T04:58:38.562Z,1004.3
2022-08-19T05:00:38.607Z,1004.3
2022-08-19T05:02:38.571Z,1004.2
2022-08-19T05:04:38.585Z,1004.3
2022-08-19T05:06:38.593Z,1004.3
2022-08-19T05:08:38.619Z,1004.3
2022-08-19T05:10:38.614Z,1004.3
2022-08-19T05:12:38.623Z,1004.3
2022-08-19T05:14:38.619Z,1004.3
2022-08-19T05:16:38.626Z,1004.2
2022-08-19T05:18:38.630Z,1004.1
2022-08-19T05:20:38.642Z,1004.1
2022-08-19T05:22:38.644Z,1004.1
2022-08-19T05:24:47.545Z,1004.1
2022-08-19T05:26:38.665Z,1004.1
2022-08-19T05:28:38.674Z,1004.2
2022-08-19T05:30:46.697Z,1004.1
2022-08-19T05:32:38.672Z,1004.1
2022-08-19T05:34:38.682Z,1004.1
2022-08-19T05:36:38.697Z,1004.1
2022-08-19T05:38:38.708Z,1004.1
2022-08-19T05:40:38.717Z,1004.2
2022-08-19T05:42:38.754Z,1004.2
2022-08-19T05:44:38.733Z,1004.2
2022-08-19T05:46:38.753Z,1004.2
2022-08-19T05:48:38.757Z,1004.2
2022-08-19T05:50:38.773Z,1004.1
2022-08-19T05:52:38.781Z,1004.1
2022-08-19T05:54:38.783Z,1004.1
2022-08-19T05:56:38.795Z,1004.2
2022-08-19T05:58:38.806Z,1004.1
2022-08-19T06:00:38.815Z,1004.1
2022-08-19T06:02:38.861Z,1004.1
2022-08-19T06:04:38.834Z,1004
2022-08-19T06:06:38.841Z,1003.9
2022-08-19T06:08:38.850Z,1004
2022-08-19T06:10:38.851Z,1004
2022-08-19T06:12:38.857Z,1004.1
2022-08-19T06:14:40.474Z,1004.1
2022-08-19T06:16:38.887Z,1004.2
2022-08-19T06:18:38.889Z,1004.2
2022-08-19T06:20:54.812Z,1004.4
2022-08-19T06:22:38.897Z,1004.4
2022-08-19T06:24:38.905Z,1004.4
2022-08-19T06:26:38.961Z,1004.5
2022-08-19T06:28:38.923Z,1004.5
2022-08-19T06:30:39.014Z,1004.5
2022-08-19T06:32:42.757Z,1004.5
2022-08-19T06:34:38.952Z,1004.4
2022-08-19T06:36:38.961Z,1004.6
2022-08-19T06:38:38.979Z,1004.6
2022-08-19T06:40:39.045Z,1004.6
2022-08-19T06:42:38.994Z,1004.6
2022-08-19T06:44:42.415Z,1004.7
2022-08-19T06:46:39.008Z,1004.7
2022-08-19T06:48:45.226Z,1004.7
2022-08-19T06:50:39.382Z,1004.7
2022-08-19T06:52:39.051Z,1004.8
2022-08-19T06:54:55.330Z,1004.8
2022-08-19T06:56:39.069Z,1004.7
2022-08-19T06:58:39.080Z,1004.7
2022-08-19T07:00:39.096Z,1004.8
2022-08-19T07:02:39.105Z,1004.9
2022-08-19T07:04:39.111Z,1005
2022-08-19T07:06:43.875Z,1005
2022-08-19T07:10:39.132Z,1005
2022-08-19T07:12:39.144Z,1005.1
2022-08-19T07:14:39.155Z,1005.1
2022-08-19T07:16:42.859Z,1005.1
2022-08-19T07:18:39.159Z,1005.1
2022-08-19T07:20:39.177Z,1005.1
2022-08-19T07:22:39.180Z,1005.1
2022-08-19T07:24:39.192Z,1005.2
2022-08-19T07:26:39.205Z,1005.2
2022-08-19T07:28:39.224Z,1005.2
2022-08-19T07:30:39.231Z,1005.2
2022-08-19T07:32:39.242Z,1005.3
2022-08-19T07:34:39.965Z,1005.3
2022-08-19T07:36:39.264Z,1005.4
2022-08-19T07:38:39.271Z,1005.4
2022-08-19T07:40:39.275Z,1005.4
2022-08-19T07:42:39.292Z,1005.4
2022-08-19T07:46:39.317Z,1005.4
2022-08-19T07:48:39.329Z,1005.5
2022-08-19T07:50:39.339Z,1005.4
2022-08-19T07:52:39.356Z,1005.4
2022-08-19T07:54:39.367Z,1005.5
2022-08-19T07:56:39.376Z,1005.5
2022-08-19T07:58:39.396Z,1005.5
2022-08-19T08:00:39.391Z,1005.4
2022-08-19T08:02:39.400Z,1005.4
2022-08-19T08:04:39.407Z,1005.3
2022-08-19T08:06:39.411Z,1005.3
2022-08-19T08:08:43.975Z,1005.4
2022-08-19T08:10:39.430Z,1005.4
2022-08-19T08:12:39.439Z,1005.5
2022-08-19T08:14:39.459Z,1005.5
2022-08-19T08:16:46.778Z,1005.5
2022-08-19T08:18:39.473Z,1005.5
2022-08-19T08:20:39.485Z,1005.6
2022-08-19T08:22:39.497Z,1005.5
2022-08-19T08:24:39.515Z,1005.5
2022-08-19T08:26:39.524Z,1005.5
2022-08-19T08:28:39.539Z,1005.5
2022-08-19T08:30:39.550Z,1005.6
2022-08-19T08:32:39.565Z,1005.6
2022-08-19T08:34:39.577Z,1005.5
2022-08-19T08:36:39.581Z,1005.5
2022-08-19T08:38:40.763Z,1005.5
2022-08-19T08:40:39.610Z,1005.5
2022-08-19T08:42:39.628Z,1005.5
2022-08-19T08:44:39.642Z,1005.5
2022-08-19T08:46:39.655Z,1005.5
2022-08-19T08:48:39.667Z,1005.5
2022-08-19T08:50:39.671Z,1005.5
2022-08-19T08:52:39.686Z,1005.5
2022-08-19T08:54:39.692Z,1005.5
2022-08-19T08:56:39.699Z,1005.5
2022-08-19T08:58:39.703Z,1005.5
2022-08-19T09:00:39.708Z,1005.5
2022-08-19T09:02:39.724Z,1005.5
2022-08-19T09:04:39.741Z,1005.5
2022-08-19T09:06:40.768Z,1005.6
2022-08-19T09:08:39.771Z,1005.6
2022-08-19T09:10:44.142Z,1005.6
2022-08-19T09:12:39.793Z,1005.6
2022-08-19T09:14:50.107Z,1005.6
2022-08-19T09:16:39.811Z,1005.6
2022-08-19T09:18:39.824Z,1005.6
2022-08-19T09:20:42.563Z,1005.5
2022-08-19T09:22:39.857Z,1005.6
2022-08-19T09:24:39.869Z,1005.5
2022-08-19T09:26:47.410Z,1005.5
2022-08-19T09:28:39.895Z,1005.5
2022-08-19T09:30:39.905Z,1005.6
2022-08-19T09:32:39.930Z,1005.6
2022-08-19T09:34:44.102Z,1005.6
2022-08-19T09:36:39.944Z,1005.5
2022-08-19T09:38:43.517Z,1005.6
2022-08-19T09:40:39.984Z,1005.6
2022-08-19T09:42:48.871Z,1005.7
2022-08-19T09:44:40.006Z,1005.7
2022-08-19T09:46:40.018Z,1005.7
2022-08-19T09:48:40.041Z,1005.7
2022-08-19T09:50:51.384Z,1005.8
2022-08-19T09:52:40.051Z,1005.8
2022-08-19T09:54:40.048Z,1005.9
2022-08-19T09:56:40.064Z,1005.9
2022-08-19T09:58:40.079Z,1005.8
2022-08-19T10:00:40.089Z,1005.9
2022-08-19T10:02:40.101Z,1005.9
2022-08-19T10:04:40.117Z,1005.9
2022-08-19T10:06:43.906Z,1005.9
2022-08-19T10:08:40.139Z,1005.9
2022-08-19T10:10:40.151Z,1005.9
2022-08-19T10:12:40.166Z,1005.9
2022-08-19T10:14:40.181Z,1005.8
2022-08-19T10:16:40.196Z,1005.9
2022-08-19T10:18:40.199Z,1005.9
2022-08-19T10:20:40.214Z,1005.9
2022-08-19T10:22:40.234Z,1005.8
2022-08-19T10:24:40.251Z,1005.8
2022-08-19T10:26:40.264Z,1005.7
2022-08-19T10:28:40.274Z,1005.8
2022-08-19T10:30:40.287Z,1005.7
2022-08-19T10:32:40.300Z,1005.7
2022-08-19T10:34:47.980Z,1005.6
2022-08-19T10:36:51.749Z,1005.6
2022-08-19T10:38:40.340Z,1005.6
2022-08-19T10:40:40.343Z,1005.5
2022-08-19T10:42:40.346Z,1005.5
2022-08-19T10:44:40.351Z,1005.5
2022-08-19T10:46:40.365Z,1005.5
2022-08-19T10:48:40.369Z,1005.5
2022-08-19T10:50:40.376Z,1005.5
2022-08-19T10:52:40.388Z,1005.5
2022-08-19T10:54:40.397Z,1005.5
2022-08-19T10:56:40.406Z,1005.5
2022-08-19T10:58:40.412Z,1005.5
2022-08-19T11:00:40.418Z,1005.4
2022-08-19T11:02:40.430Z,1005.4
2022-08-19T11:04:40.439Z,1005.3
2022-08-19T11:06:40.446Z,1005.2
2022-08-19T11:08:40.449Z,1005.2
2022-08-19T11:10:40.458Z,1005.2
2022-08-19T11:12:40.467Z,1005.2
2022-08-19T11:14:40.478Z,1005.1
2022-08-19T11:16:40.486Z,1005.1
2022-08-19T11:18:40.498Z,1005.1
2022-08-19T11:20:40.506Z,1005.1
2022-08-19T11:22:41.724Z,1005.1
2022-08-19T11:24:40.531Z,1005.2
2022-08-19T11:26:40.529Z,1005.2
2022-08-19T11:28:40.536Z,1005.1
2022-08-19T11:30:40.541Z,1005.1
2022-08-19T11:32:41.868Z,1005.1
2022-08-19T11:34:40.553Z,1005.1
2022-08-19T11:36:40.609Z,1005.2
2022-08-19T11:38:40.569Z,1005.2
2022-08-19T11:40:40.575Z,1005.1
2022-08-19T11:42:40.581Z,1005.2
2022-08-19T11:44:40.593Z,1005.2
2022-08-19T11:46:40.594Z,1005.1
2022-08-19T11:48:40.609Z,1005.2
2022-08-19T11:50:40.615Z,1005.1
2022-08-19T11:52:40.626Z,1005.2
2022-08-19T11:54:40.634Z,1005.2
2022-08-19T11:56:40.645Z,1005.1
2022-08-19T11:58:40.651Z,1005.2
2022-08-19T12:00:40.662Z,1005.2
2022-08-19T12:02:40.669Z,1005.2
2022-08-19T12:04:40.675Z,1005.2
2022-08-19T12:06:40.685Z,1005.2
2022-08-19T12:08:40.695Z,1005.2
2022-08-19T12:10:40.704Z,1005.2
2022-08-19T12:12:40.714Z,1005.2
2022-08-19T12:14:40.723Z,1005.2
2022-08-19T12:16:42.672Z,1005.2
2022-08-19T12:18:40.741Z,1005.2
2022-08-19T12:20:40.754Z,1005.2
2022-08-19T12:22:40.757Z,1005.2
2022-08-19T12:24:40.766Z,1005.2
2022-08-19T12:26:52.713Z,1005.1
2022-08-19T12:28:40.768Z,1005.2
2022-08-19T12:30:40.778Z,1005.2
2022-08-19T12:32:40.787Z,1005.2
2022-08-19T12:34:40.792Z,1005.1
2022-08-19T12:36:40.802Z,1005.1
2022-08-19T12:38:40.807Z,1005.1
2022-08-19T12:40:40.820Z,1005.1
2022-08-19T12:42:40.828Z,1005.1
2022-08-19T12:44:41.570Z,1005.1
2022-08-19T12:46:40.851Z,1005.2
2022-08-19T12:48:40.854Z,1005.1
2022-08-19T12:50:40.870Z,1005.1
2022-08-19T12:52:40.886Z,1005.1
2022-08-19T12:54:40.896Z,1005
2022-08-19T12:56:40.915Z,1005.1
2022-08-19T12:58:40.910Z,1005.1
2022-08-19T13:00:40.958Z,1005
2022-08-19T13:02:40.930Z,1005.1
2022-08-19T13:04:40.938Z,1005
2022-08-19T13:06:40.958Z,1005.1
2022-08-19T13:08:40.966Z,1005.1
2022-08-19T13:10:40.974Z,1005
2022-08-19T13:12:40.982Z,1005
2022-08-19T13:14:40.994Z,1005
2022-08-19T13:16:40.996Z,1005
2022-08-19T13:18:41.019Z,1005
2022-08-19T13:20:40.995Z,1005
2022-08-19T13:22:41.011Z,1005
2022-08-19T13:24:43.967Z,1005
2022-08-19T13:26:41.033Z,1005
2022-08-19T13:28:41.041Z,1005
2022-08-19T13:30:41.052Z,1005
2022-08-19T13:32:41.063Z,1005
2022-08-19T13:34:41.070Z,1005
2022-08-19T13:36:41.084Z,1005
2022-08-19T13:38:41.094Z,1005
2022-08-19T13:40:41.371Z,1005
2022-08-19T13:42:41.146Z,1005
2022-08-19T13:44:41.140Z,1005.1
2022-08-19T13:46:41.157Z,1005
2022-08-19T13:48:41.153Z,1005
2022-08-19T13:50:41.156Z,1005
2022-08-19T13:52:41.168Z,1005
2022-08-19T13:54:41.162Z,1005
2022-08-19T13:56:41.169Z,1005
2022-08-19T13:58:41.322Z,1005
2022-08-19T14:00:41.425Z,1005
2022-08-19T14:02:41.183Z,1005
2022-08-19T14:04:41.502Z,1005.1
2022-08-19T14:06:41.203Z,1005
2022-08-19T14:08:44.253Z,1005
2022-08-19T14:10:41.199Z,1005
2022-08-19T14:12:41.212Z,1005
2022-08-19T14:14:41.213Z,1005
2022-08-19T14:16:41.210Z,1005
2022-08-19T14:18:41.213Z,1004.9
2022-08-19T14:20:41.222Z,1004.9
2022-08-19T14:22:41.223Z,1004.9
2022-08-19T14:24:41.228Z,1004.9
2022-08-19T14:26:41.228Z,1004.9
2022-08-19T14:28:41.239Z,1005
2022-08-19T14:30:41.245Z,1004.9
2022-08-19T14:32:41.245Z,1004.9
2022-08-19T14:34:41.256Z,1005
2022-08-19T14:36:41.252Z,1005
2022-08-19T14:38:41.262Z,1005
2022-08-19T14:40:41.259Z,1004.9
2022-08-19T14:42:41.268Z,1004.9
2022-08-19T14:44:41.276Z,1004.8
2022-08-19T14:46:41.274Z,1004.9
2022-08-19T14:48:41.546Z,1004.8
2022-08-19T14:50:41.286Z,1004.7
2022-08-19T14:52:41.292Z,1004.7
2022-08-19T14:54:41.289Z,1004.7
2022-08-19T14:56:41.302Z,1004.8
2022-08-19T14:58:41.368Z,1004.8
2022-08-19T15:00:41.308Z,1004.8
2022-08-19T15:02:41.326Z,1004.8
2022-08-19T15:04:41.308Z,1004.8
2022-08-19T15:06:41.307Z,1004.9
2022-08-19T15:08:41.318Z,1004.9
2022-08-19T15:10:41.325Z,1004.9
2022-08-19T15:12:41.328Z,1004.8
2022-08-19T15:14:41.325Z,1004.8
2022-08-19T15:16:41.333Z,1004.8
2022-08-19T15:18:41.340Z,1004.8
2022-08-19T15:20:42.015Z,1004.8
2022-08-19T15:22:41.357Z,1004.8
2022-08-19T15:24:47.797Z,1004.8
2022-08-19T15:26:41.369Z,1004.7
2022-08-19T15:28:41.375Z,1004.7
2022-08-19T15:30:41.381Z,1004.8
2022-08-19T15:32:41.390Z,1004.8
2022-08-19T15:34:41.397Z,1004.9
2022-08-19T15:36:41.414Z,1004.9
2022-08-19T15:38:45.603Z,1004.9
2022-08-19T15:40:41.411Z,1005
2022-08-19T15:42:41.415Z,1005
2022-08-19T15:44:41.426Z,1005
2022-08-19T15:46:41.417Z,1005.1
2022-08-19T15:48:41.427Z,1005.1
2022-08-19T15:50:41.424Z,1005.1
2022-08-19T15:52:46.797Z,1005.1
2022-08-19T15:54:41.433Z,1005.1
2022-08-19T15:56:41.452Z,1005.1
2022-08-19T15:58:41.448Z,1005.1
2022-08-19T16:00:41.448Z,1005.1
2022-08-19T16:02:41.453Z,1005.1
2022-08-19T16:04:41.448Z,1005
2022-08-19T16:06:41.458Z,1005
2022-08-19T16:08:48.711Z,1004.9
2022-08-19T16:10:41.466Z,1004.8
2022-08-19T16:12:41.464Z,1004.9
2022-08-19T16:14:41.467Z,1004.8
2022-08-19T16:16:41.476Z,1004.7
2022-08-19T16:18:41.479Z,1004.6
2022-08-19T16:20:41.482Z,1004.6
2022-08-19T16:22:41.479Z,1004.6
2022-08-19T16:24:41.489Z,1004.6
2022-08-19T16:26:41.486Z,1004.6
2022-08-19T16:28:41.490Z,1004.7
2022-08-19T16:30:41.492Z,1004.7
2022-08-19T16:32:41.491Z,1004.8
2022-08-19T16:34:41.513Z,1004.8
2022-08-19T16:36:41.495Z,1004.9
2022-08-19T16:38:41.501Z,1004.9
2022-08-19T16:40:44.974Z,1004.8
2022-08-19T16:42:41.510Z,1004.9
2022-08-19T16:44:41.515Z,1004.9
2022-08-19T16:46:41.515Z,1004.9
2022-08-19T16:48:41.517Z,1004.9
2022-08-19T16:50:49.035Z,1004.8
2022-08-19T16:52:41.605Z,1004.8
2022-08-19T16:54:41.522Z,1004.8
2022-08-19T16:56:41.527Z,1004.8
2022-08-19T16:58:41.528Z,1004.7
2022-08-19T17:00:41.540Z,1004.7
2022-08-19T17:02:41.535Z,1004.7
2022-08-19T17:04:41.552Z,1004.7
2022-08-19T17:06:41.547Z,1004.7
2022-08-19T17:08:43.762Z,1004.7
2022-08-19T17:10:48.801Z,1004.8
2022-08-19T17:12:41.553Z,1004.7
2022-08-19T17:14:45.195Z,1004.8
2022-08-19T17:16:41.561Z,1004.8
2022-08-19T17:18:41.564Z,1004.8
2022-08-19T17:20:41.567Z,1004.8
2022-08-19T17:22:41.569Z,1004.9
2022-08-19T17:24:41.575Z,1004.9
2022-08-19T17:26:41.579Z,1004.9
2022-08-19T17:28:41.584Z,1005
2022-08-19T17:30:41.779Z,1004.9
2022-08-19T17:32:41.589Z,1004.9
2022-08-19T17:34:41.600Z,1004.9
2022-08-19T17:36:41.604Z,1004.9
2022-08-19T17:38:41.608Z,1004.9
2022-08-19T17:40:41.609Z,1005
2022-08-19T17:42:41.612Z,1004.9
2022-08-19T17:44:41.616Z,1005
2022-08-19T17:46:41.622Z,1005
2022-08-19T17:48:41.628Z,1005
2022-08-19T17:50:41.626Z,1005.1
2022-08-19T17:52:41.633Z,1005
2022-08-19T17:54:41.635Z,1005
2022-08-19T17:56:41.644Z,1005
2022-08-19T17:58:41.651Z,1005
2022-08-19T18:00:52.690Z,1005
2022-08-19T18:02:41.654Z,1005
2022-08-19T18:04:44.402Z,1005
2022-08-19T18:06:41.669Z,1005
2022-08-19T18:08:41.667Z,1005
2022-08-19T18:10:41.670Z,1005
2022-08-19T18:12:41.672Z,1005
2022-08-19T18:14:41.677Z,1004.9
2022-08-19T18:16:41.678Z,1004.9
2022-08-19T18:18:41.691Z,1004.9
2022-08-19T18:20:41.695Z,1004.9
2022-08-19T18:22:41.697Z,1005
2022-08-19T18:24:41.751Z,1005
2022-08-19T18:26:41.710Z,1005
2022-08-19T18:28:49.374Z,1004.9
2022-08-19T18:30:41.728Z,1004.9
2022-08-19T18:32:41.723Z,1004.9
2022-08-19T18:34:41.727Z,1005
2022-08-19T18:36:53.284Z,1005
2022-08-19T18:38:41.735Z,1005
2022-08-19T18:40:41.745Z,1005
2022-08-19T18:42:41.751Z,1005.1
2022-08-19T18:44:41.752Z,1005.1
2022-08-19T18:46:41.761Z,1005.1
2022-08-19T18:48:41.765Z,1005.2
2022-08-19T18:50:41.776Z,1005.2
2022-08-19T18:52:41.777Z,1005.3
2022-08-19T18:54:41.789Z,1005.3
2022-08-19T18:56:41.794Z,1005.3
2022-08-19T18:58:41.801Z,1005.2
2022-08-19T19:00:41.803Z,1005.3
2022-08-19T19:02:41.814Z,1005.3
2022-08-19T19:04:41.813Z,1005.3
2022-08-19T19:06:41.816Z,1005.3
2022-08-19T19:08:41.822Z,1005.4
2022-08-19T19:10:41.826Z,1005.4
2022-08-19T19:12:41.831Z,1005.4
2022-08-19T19:14:49.665Z,1005.4
2022-08-19T19:16:41.845Z,1005.4
2022-08-19T19:18:41.850Z,1005.4
2022-08-19T19:20:41.851Z,1005.5
2022-08-19T19:22:41.861Z,1005.5
2022-08-19T19:24:41.868Z,1005.5
2022-08-19T19:26:41.874Z,1005.5
2022-08-19T19:28:41.888Z,1005.5
2022-08-19T19:30:41.886Z,1005.5
2022-08-19T19:32:41.893Z,1005.5
2022-08-19T19:34:41.900Z,1005.5
2022-08-19T19:36:41.908Z,1005.6
2022-08-19T19:38:45.088Z,1005.6
2022-08-19T19:40:41.930Z,1005.6
2022-08-19T19:42:41.958Z,1005.7
2022-08-19T19:44:41.940Z,1005.7
2022-08-19T19:46:41.949Z,1005.8
2022-08-19T19:48:41.960Z,1005.8
2022-08-19T19:50:41.985Z,1005.7
2022-08-19T19:52:41.976Z,1005.8
2022-08-19T19:54:41.985Z,1005.8
2022-08-19T19:56:41.994Z,1005.8
2022-08-19T19:58:42.001Z,1005.8
2022-08-19T20:00:42.026Z,1005.9
2022-08-19T20:02:42.018Z,1005.9
2022-08-19T20:04:42.020Z,1005.9
2022-08-19T20:06:42.025Z,1005.9
2022-08-19T20:08:42.036Z,1005.9
2022-08-19T20:10:42.035Z,1005.9
2022-08-19T20:12:42.041Z,1005.9
2022-08-19T20:14:42.044Z,1005.9
2022-08-19T20:16:42.056Z,1005.9
2022-08-19T20:18:42.060Z,1006
2022-08-19T20:20:42.070Z,1005.9
2022-08-19T20:22:42.077Z,1005.9
2022-08-19T20:24:42.088Z,1005.9
2022-08-19T20:26:42.093Z,1005.9
2022-08-19T20:28:43.502Z,1005.9
2022-08-19T20:30:46.363Z,1005.9
2022-08-19T20:32:42.115Z,1005.9
2022-08-19T20:34:42.123Z,1005.8
2022-08-19T20:36:42.130Z,1005.8
2022-08-19T20:38:42.134Z,1005.8
2022-08-19T20:40:42.151Z,1005.8
2022-08-19T20:42:42.151Z,1005.8
2022-08-19T20:44:42.158Z,1005.8
2022-08-19T20:46:42.167Z,1005.9
2022-08-19T20:48:42.182Z,1005.9
2022-08-19T20:50:42.183Z,1006
2022-08-19T20:52:42.189Z,1006
2022-08-19T20:54:42.206Z,1006
2022-08-19T20:56:42.208Z,1006
2022-08-19T20:58:42.214Z,1006
2022-08-19T21:00:42.270Z,1006
2022-08-19T21:02:42.222Z,1006
2022-08-19T21:04:42.227Z,1005.9
2022-08-19T21:06:43.948Z,1006
2022-08-19T21:08:42.248Z,1006
2022-08-19T21:10:42.585Z,1006
2022-08-19T21:12:42.261Z,1006
2022-08-19T21:14:42.266Z,1006
2022-08-19T21:16:42.275Z,1006
2022-08-19T21:18:42.277Z,1006
2022-08-19T21:20:42.281Z,1006
2022-08-19T21:22:42.381Z,1006
2022-08-19T21:24:42.374Z,1006
2022-08-19T21:26:42.308Z,1006
2022-08-19T21:28:42.322Z,1006
2022-08-19T21:30:42.321Z,1006
2022-08-19T21:32:42.337Z,1006
2022-08-19T21:34:42.717Z,1006.1
2022-08-19T21:36:42.354Z,1006.1
2022-08-19T21:38:42.355Z,1006.1
2022-08-19T21:40:42.374Z,1006.1
2022-08-19T21:42:42.374Z,1006
2022-08-19T21:44:45.455Z,1006.1
2022-08-19T21:46:42.393Z,1006.1
2022-08-19T21:48:42.406Z,1006.1
2022-08-19T21:50:42.407Z,1006.1
2022-08-19T21:52:42.416Z,1006.1
2022-08-19T21:54:42.411Z,1006.1
2022-08-19T21:56:42.436Z,1006.1
2022-08-19T21:58:42.428Z,1006.1
2022-08-19T22:00:42.482Z,1006.1
2022-08-19T22:02:42.443Z,1006.1
2022-08-19T22:04:42.449Z,1006.2
2022-08-19T22:06:42.460Z,1006.2
2022-08-19T22:08:42.464Z,1006.2
2022-08-19T22:10:42.474Z,1006.3
2022-08-19T22:12:46.057Z,1006.3
2022-08-19T22:14:42.488Z,1006.3
2022-08-19T22:16:42.496Z,1006.1
2022-08-19T22:18:42.508Z,1006.1
2022-08-19T22:20:42.515Z,1006.1
2022-08-19T22:22:42.673Z,1006.1
2022-08-19T22:24:42.527Z,1006
2022-08-19T22:26:42.533Z,1006
2022-08-19T22:28:42.543Z,1006
2022-08-19T22:30:42.545Z,1006
2022-08-19T22:32:42.565Z,1005.9
2022-08-19T22:34:42.571Z,1006
2022-08-19T22:36:42.579Z,1006
2022-08-19T22:38:42.580Z,1006
2022-08-19T22:40:42.588Z,1005.9
2022-08-19T22:42:42.592Z,1005.9
2022-08-19T22:44:42.602Z,1005.9
2022-08-19T22:46:42.615Z,1005.9
2022-08-19T22:48:42.609Z,1005.9
2022-08-19T22:50:42.615Z,1005.7
2022-08-19T22:52:42.624Z,1005.9
2022-08-19T22:54:42.630Z,1005.9
2022-08-19T22:56:42.638Z,1005.9
2022-08-19T22:58:42.647Z,1005.8
2022-08-19T23:00:42.781Z,1005.9
2022-08-19T23:02:51.481Z,1006
2022-08-19T23:04:42.664Z,1006
2022-08-19T23:06:42.671Z,1006
2022-08-19T23:08:42.676Z,1006
2022-08-19T23:10:42.686Z,1006
2022-08-19T23:12:42.684Z,1006
2022-08-19T23:14:42.691Z,1006
2022-08-19T23:16:42.697Z,1006.1
2022-08-19T23:18:42.707Z,1006
2022-08-19T23:20:42.708Z,1006
2022-08-19T23:22:42.717Z,1006
2022-08-19T23:24:42.726Z,1006
2022-08-19T23:26:42.731Z,1005.9
2022-08-19T23:28:42.982Z,1005.9
2022-08-19T23:30:42.747Z,1005.9
2022-08-19T23:32:42.758Z,1005.8
2022-08-19T23:34:42.762Z,1005.8
2022-08-19T23:36:42.767Z,1005.8
2022-08-19T23:38:42.764Z,1005.8
2022-08-19T23:40:42.782Z,1005.8
2022-08-19T23:42:42.782Z,1005.8
2022-08-19T23:44:51.170Z,1005.9
2022-08-19T23:46:54.830Z,1005.9
2022-08-19T23:48:42.798Z,1005.9
2022-08-19T23:50:42.807Z,1005.9
2022-08-19T23:52:42.809Z,1005.9
2022-08-19T23:54:43.965Z,1005.9
2022-08-19T23:56:42.831Z,1005.9
2022-08-19T23:58:42.835Z,1005.8
